This is the latest recevied weather packets stored in our database for station/object EA1EME-3. If no packets are shown the sender has not sent any weather packets the latest 10 day(s).
| Time | Temp. | Humidity | Pressure | Rain* | Wind** | Luminosity | Snow |
|---|---|---|---|---|---|---|---|
| 1787598243 | 22.78° C | 71% | 1007 hPa | - | - | - | - |
| 1787597041 | 22.78° C | 71% | 1007 hPa | - | - | - | - |
| 1787595839 | 23.33° C | 69% | 1007 hPa | - | - | - | - |
| 1787594637 | 23.33° C | 70% | 1007 hPa | - | - | - | - |
| 1787593435 | 23.33° C | 69% | 1006 hPa | - | - | - | - |
| 1787592233 | 23.33° C | 70% | 1007 hPa | - | - | - | - |
| 1787591032 | 23.33° C | 70% | 1007 hPa | - | - | - | - |
| 1787589829 | 24.44° C | 66% | 1007 hPa | - | - | - | - |
| 1787588627 | 23.89° C | 66% | 1007 hPa | - | - | - | - |
| 1787587425 | 23.89° C | 68% | 1007 hPa | - | - | - | - |
| 1787586223 | 24.44° C | 66% | 1007 hPa | - | - | - | - |
| 1787585021 | 25° C | 59% | 1007 hPa | - | - | - | - |
| 1787583819 | 25.56° C | 60% | 1008 hPa | - | - | - | - |
| 1787582617 | 26.11° C | 58% | 1008 hPa | - | - | - | - |
| 1787581415 | 26.11° C | 56% | 1008 hPa | - | - | - | - |
| 1787580213 | 27.22° C | 53% | 1008 hPa | - | - | - | - |
| 1787579012 | 27.78° C | 53% | 1008 hPa | - | - | - | - |
| 1787577809 | 27.78° C | 54% | 1007 hPa | - | - | - | - |
| 1787576607 | 26.67° C | 57% | 1007 hPa | - | - | - | - |
| 1787575406 | 25.56° C | 59% | 1007 hPa | - | - | - | - |
| 1787574204 | 24.44° C | 59% | 1007 hPa | - | - | - | - |
| 1787573003 | 24.44° C | 58% | 1007 hPa | - | - | - | - |
| 1787571800 | 24.44° C | 57% | 1007 hPa | - | - | - | - |
| 1787570598 | 24.44° C | 59% | 1007 hPa | - | - | - | - |
| 1787569396 | 24.44° C | 59% | 1007 hPa | - | - | - | - |
* Rain since midnight (hover to see other rain measurements)
** Current wind speed in m/s (hover to see current wind gust speed)